createdAt,value
2019-06-07T00:02:22.540Z,5.27
2019-06-07T00:04:52.432Z,6.20
2019-06-07T00:07:22.559Z,6.40
2019-06-07T00:09:52.559Z,6.00
2019-06-07T00:12:22.878Z,6.10
2019-06-07T00:14:52.886Z,5.53
2019-06-07T00:17:22.790Z,7.30
2019-06-07T00:19:54.118Z,5.23
2019-06-07T00:22:33.055Z,6.03
2019-06-07T00:24:55.670Z,6.23
2019-06-07T00:27:25.653Z,5.00
2019-06-07T00:29:56.271Z,8.37
2019-06-07T00:32:26.400Z,7.23
2019-06-07T00:34:56.860Z,4.83
2019-06-07T00:37:26.769Z,5.07
2019-06-07T00:40:13.546Z,5.20
2019-06-07T00:42:28.429Z,6.20
2019-06-07T00:44:58.368Z,5.90
2019-06-07T00:47:28.508Z,4.97
2019-06-07T00:49:58.895Z,6.03
2019-06-07T00:55:00.815Z,6.20
2019-06-07T00:57:30.748Z,6.97
2019-06-07T01:00:01.855Z,6.60
2019-06-07T01:02:31.877Z,5.00
2019-06-07T01:05:01.870Z,4.70
2019-06-07T01:07:32.712Z,4.97
2019-06-07T01:10:02.857Z,4.73
2019-06-07T01:12:34.632Z,5.10
2019-06-07T01:15:07.065Z,5.00
2019-06-07T01:17:50.181Z,6.73
2019-06-07T01:20:11.758Z,4.07
2019-06-07T01:22:42.159Z,6.67
2019-06-07T01:25:15.791Z,4.80
2019-06-07T01:27:45.922Z,4.13
2019-06-07T01:30:18.838Z,7.57
2019-06-07T01:32:48.903Z,5.07
2019-06-07T01:35:20.612Z,4.33
2019-06-07T01:37:51.307Z,4.23
2019-06-07T01:40:27.726Z,4.20
2019-06-07T01:42:55.166Z,5.67
2019-06-07T01:45:30.602Z,5.00
2019-06-07T01:47:58.718Z,4.93
2019-06-07T01:50:29.758Z,5.53
2019-06-07T01:53:00.122Z,6.13
2019-06-07T01:55:32.799Z,5.00
2019-06-07T01:58:01.852Z,5.63
2019-06-07T02:00:32.743Z,5.03
2019-06-07T02:03:03.062Z,4.43
2019-06-07T02:05:33.051Z,4.20
2019-06-07T02:08:02.936Z,5.47
2019-06-07T02:10:33.817Z,6.70
2019-06-07T02:13:04.494Z,5.70
2019-06-07T02:15:36.814Z,6.87
2019-06-07T02:18:07.694Z,5.20
2019-06-07T02:20:37.831Z,4.97
2019-06-07T02:23:08.739Z,4.67
2019-06-07T02:25:48.423Z,4.83
2019-06-07T02:28:44.205Z,7.70
2019-06-07T02:30:59.391Z,5.47
2019-06-07T02:33:25.840Z,4.63
2019-06-07T02:35:53.304Z,7.30
2019-06-07T02:38:27.278Z,5.50
2019-06-07T02:40:55.492Z,4.30
2019-06-07T02:43:28.385Z,6.23
2019-06-07T02:46:24.318Z,6.30
2019-06-07T02:48:35.277Z,4.47
2019-06-07T02:51:02.856Z,6.03
2019-06-07T02:53:39.516Z,4.97
2019-06-07T02:56:37.446Z,5.77
2019-06-07T02:58:41.542Z,5.63
2019-06-07T03:01:09.934Z,7.10
2019-06-07T03:03:40.709Z,6.80
2019-06-07T03:06:15.145Z,5.47
2019-06-07T03:08:47.477Z,5.97
2019-06-07T03:11:18.675Z,9.30
2019-06-07T03:13:50.887Z,4.80
2019-06-07T03:16:28.742Z,7.53
2019-06-07T03:19:08.912Z,5.20
2019-06-07T03:21:43.705Z,6.20
2019-06-07T03:24:13.701Z,7.73
2019-06-07T03:27:32.181Z,7.17
2019-06-07T03:29:17.115Z,6.67
2019-06-07T03:31:47.984Z,16.70
2019-06-07T03:34:18.612Z,6.93
2019-06-07T03:36:48.500Z,6.63
2019-06-07T03:39:18.590Z,6.87
2019-06-07T03:42:05.082Z,5.20
2019-06-07T03:44:22.799Z,8.30
2019-06-07T03:46:52.869Z,6.10
2019-06-07T03:49:22.775Z,5.90
2019-06-07T03:51:53.302Z,6.33
2019-06-07T03:54:23.528Z,6.17
2019-06-07T03:56:53.520Z,5.80
2019-06-07T03:59:23.885Z,8.97
2019-06-07T04:01:53.971Z,8.23
2019-06-07T04:04:25.531Z,5.50
2019-06-07T04:06:58.900Z,8.80
2019-06-07T04:09:33.708Z,5.30
2019-06-07T04:12:01.809Z,5.50
2019-06-07T04:14:32.828Z,6.77
2019-06-07T04:17:03.036Z,7.00
2019-06-07T04:19:37.249Z,6.20
2019-06-07T04:22:04.600Z,6.20
2019-06-07T04:24:38.898Z,5.97
2019-06-07T04:27:06.418Z,7.43
2019-06-07T04:29:56.716Z,7.40
2019-06-07T04:32:08.244Z,6.97
2019-06-07T04:34:42.606Z,6.93
2019-06-07T04:37:10.703Z,5.03
2019-06-07T04:39:45.186Z,5.00
2019-06-07T04:42:17.651Z,5.17
2019-06-07T04:44:50.400Z,5.40
2019-06-07T04:47:20.964Z,7.43
2019-06-07T04:49:58.437Z,13.80
2019-06-07T04:52:25.664Z,9.23
2019-06-07T04:54:55.555Z,13.53
2019-06-07T04:57:26.453Z,9.07
2019-06-07T05:00:46.123Z,34.93
2019-06-07T05:02:29.539Z,19.27
2019-06-07T05:05:00.916Z,51.10
2019-06-07T05:07:33.015Z,47.60
2019-06-07T05:10:03.436Z,10.93
2019-06-07T05:12:36.148Z,5.57
2019-06-07T05:15:06.065Z,6.33
2019-06-07T05:17:37.058Z,6.90
2019-06-07T05:20:07.904Z,8.97
2019-06-07T05:22:45.065Z,4.00
2019-06-07T05:25:13.012Z,5.43
2019-06-07T05:27:46.927Z,10.83
2019-06-07T05:30:59.923Z,10.87
2019-06-07T05:32:51.945Z,12.73
2019-06-07T05:35:22.396Z,5.30
2019-06-07T05:37:52.322Z,7.37
2019-06-07T05:40:34.967Z,7.93
2019-06-07T05:43:07.852Z,4.17
2019-06-07T05:45:44.158Z,6.33
2019-06-07T05:48:10.903Z,8.77
2019-06-07T05:50:51.768Z,4.50
2019-06-07T05:53:13.405Z,6.50
2019-06-07T05:55:46.886Z,5.97
2019-06-07T05:58:15.318Z,11.57
2019-06-07T06:00:47.603Z,5.70
2019-06-07T06:03:17.585Z,6.30
2019-06-07T06:05:54.454Z,4.80
2019-06-07T06:08:21.230Z,4.97
2019-06-07T06:10:51.309Z,5.60
2019-06-07T06:13:21.383Z,6.03
2019-06-07T06:16:01.267Z,6.13
2019-06-07T06:18:23.966Z,7.50
2019-06-07T06:21:15.643Z,6.30
2019-06-07T06:23:25.789Z,4.63
2019-06-07T06:25:57.905Z,8.87
2019-06-07T06:28:29.006Z,5.67
2019-06-07T06:30:59.281Z,5.17
2019-06-07T06:33:34.414Z,6.73
2019-06-07T06:36:00.847Z,11.23
2019-06-07T06:38:31.451Z,5.23
2019-06-07T06:41:15.286Z,6.73
2019-06-07T06:43:33.547Z,4.90
2019-06-07T06:46:03.659Z,6.87
2019-06-07T06:48:34.980Z,8.67
2019-06-07T06:51:05.287Z,4.00
2019-06-07T06:53:35.875Z,5.17
2019-06-07T06:56:06.052Z,5.20
2019-06-07T06:59:25.178Z,3.57
2019-06-07T07:01:11.005Z,4.67
2019-06-07T07:04:00.085Z,3.77
2019-06-07T07:06:26.025Z,4.67
2019-06-07T07:08:50.697Z,6.57
2019-06-07T07:11:23.239Z,5.63
2019-06-07T07:13:56.279Z,3.93
2019-06-07T07:16:24.323Z,4.37
2019-06-07T07:18:54.861Z,3.63
2019-06-07T07:21:24.957Z,2.77
2019-06-07T07:24:19.217Z,3.73
2019-06-07T07:26:27.879Z,4.13
2019-06-07T07:28:58.095Z,3.70
2019-06-07T07:31:28.006Z,3.53
2019-06-07T07:34:32.547Z,4.03
2019-06-07T07:36:39.203Z,1.70
2019-06-07T07:39:04.818Z,3.70
2019-06-07T07:41:36.977Z,3.03
2019-06-07T07:44:07.969Z,5.37
2019-06-07T07:46:38.864Z,4.27
2019-06-07T07:49:08.798Z,4.27
2019-06-07T07:51:39.413Z,3.83
2019-06-07T07:54:11.120Z,4.33
2019-06-07T07:56:41.496Z,3.07
2019-06-07T07:59:11.941Z,3.00
2019-06-07T08:01:41.889Z,3.37
2019-06-07T08:04:12.350Z,5.83
2019-06-07T08:06:46.537Z,4.87
2019-06-07T08:09:16.960Z,6.67
2019-06-07T08:11:49.316Z,5.37
2019-06-07T08:14:19.302Z,4.77
2019-06-07T08:16:49.392Z,7.17
2019-06-07T08:19:19.340Z,5.80
2019-06-07T08:21:50.651Z,6.63
2019-06-07T08:24:20.714Z,7.63
2019-06-07T08:27:12.500Z,7.70
2019-06-07T08:29:22.824Z,5.03
2019-06-07T08:31:58.101Z,7.90
2019-06-07T08:34:27.988Z,7.27
2019-06-07T08:37:01.761Z,13.93
2019-06-07T08:39:32.173Z,11.03
2019-06-07T08:42:15.192Z,16.00
2019-06-07T08:44:34.574Z,9.87
2019-06-07T08:47:19.293Z,7.20
2019-06-07T08:49:36.475Z,5.63
2019-06-07T08:52:11.727Z,4.47
2019-06-07T08:54:38.811Z,4.47
2019-06-07T08:57:20.579Z,4.13
2019-06-07T08:59:42.491Z,4.87
2019-06-07T09:02:23.465Z,3.17
2019-06-07T09:04:48.828Z,2.90
2019-06-07T09:07:22.072Z,2.67
2019-06-07T09:09:59.775Z,3.03
2019-06-07T09:12:25.201Z,4.00
2019-06-07T09:15:06.329Z,2.83
2019-06-07T09:17:26.887Z,2.47
2019-06-07T09:19:58.936Z,2.80
2019-06-07T09:22:28.728Z,3.47
2019-06-07T09:25:12.142Z,2.97
2019-06-07T09:27:37.793Z,2.73
2019-06-07T09:30:16.271Z,2.80
2019-06-07T09:32:41.386Z,2.80
2019-06-07T09:35:17.248Z,1.63
2019-06-07T09:40:27.453Z,2.80
2019-06-07T09:43:38.035Z,2.23
2019-06-07T09:45:25.602Z,2.07
2019-06-07T09:47:58.607Z,3.03
2019-06-07T09:50:27.658Z,2.20
2019-06-07T09:53:07.385Z,3.00
2019-06-07T09:55:30.187Z,3.13
2019-06-07T09:58:47.862Z,4.00
2019-06-07T10:00:41.961Z,2.07
2019-06-07T10:03:17.852Z,3.13
2019-06-07T10:05:40.289Z,8.77
2019-06-07T10:08:54.600Z,4.47
2019-06-07T10:10:43.560Z,4.53
2019-06-07T10:13:20.208Z,3.40
2019-06-07T10:15:53.559Z,8.90
2019-06-07T10:18:22.221Z,4.80
2019-06-07T10:20:52.327Z,2.50
2019-06-07T10:23:22.239Z,3.50
2019-06-07T10:25:52.212Z,4.47
2019-06-07T10:28:24.810Z,3.60
2019-06-07T10:30:54.027Z,3.30
2019-06-07T10:33:23.995Z,3.13
2019-06-07T10:35:54.033Z,3.27
2019-06-07T10:38:24.275Z,2.77
2019-06-07T10:40:54.419Z,3.37
2019-06-07T10:43:25.938Z,2.77
2019-06-07T10:45:55.878Z,3.13
2019-06-07T10:48:25.782Z,2.57
2019-06-07T10:50:55.821Z,2.87
2019-06-07T10:53:28.699Z,2.20
2019-06-07T10:55:58.793Z,4.63
2019-06-07T10:58:29.174Z,2.67
2019-06-07T11:00:59.518Z,11.60
2019-06-07T11:03:29.561Z,4.20
2019-06-07T11:05:59.645Z,2.87
2019-06-07T11:08:29.911Z,4.43
2019-06-07T11:11:00.150Z,4.83
2019-06-07T11:13:30.851Z,2.17
2019-06-07T11:16:00.782Z,3.07
2019-06-07T11:18:31.093Z,2.93
2019-06-07T11:21:01.012Z,3.47
2019-06-07T11:23:31.028Z,2.10
2019-06-07T11:26:02.988Z,3.03
2019-06-07T11:28:32.994Z,2.31
2019-06-07T11:31:03.285Z,2.13
2019-06-07T11:33:33.236Z,2.67
2019-06-07T11:36:03.216Z,3.20
2019-06-07T11:38:33.100Z,2.57
2019-06-07T11:41:03.031Z,2.33
2019-06-07T11:43:32.931Z,2.27
2019-06-07T11:46:02.905Z,1.90
2019-06-07T11:48:33.424Z,3.83
2019-06-07T11:51:03.336Z,2.77
2019-06-07T11:53:33.542Z,2.23
2019-06-07T11:56:03.523Z,3.27
2019-06-07T11:58:33.385Z,4.17
2019-06-07T12:01:03.343Z,4.67
2019-06-07T12:03:33.330Z,3.00
2019-06-07T12:06:03.281Z,3.03
2019-06-07T12:08:33.293Z,2.83
2019-06-07T12:11:03.171Z,4.40
2019-06-07T12:13:33.079Z,4.63
2019-06-07T12:16:02.977Z,2.70
2019-06-07T12:18:32.859Z,2.47
2019-06-07T12:21:02.842Z,2.50
2019-06-07T12:23:32.688Z,5.10
2019-06-07T12:26:02.858Z,5.93
2019-06-07T12:28:32.794Z,2.00
2019-06-07T12:31:02.730Z,3.27
2019-06-07T12:33:32.605Z,2.67
2019-06-07T12:36:02.499Z,2.20
2019-06-07T12:38:32.410Z,2.37
2019-06-07T12:41:02.341Z,2.47
2019-06-07T12:43:32.216Z,4.30
2019-06-07T12:46:02.456Z,2.30
2019-06-07T12:48:32.351Z,1.83
2019-06-07T12:51:02.361Z,2.67
2019-06-07T12:53:32.251Z,2.00
2019-06-07T12:56:02.212Z,2.90
2019-06-07T12:58:36.272Z,2.50
2019-06-07T13:01:04.575Z,2.43
2019-06-07T13:03:34.616Z,4.20
2019-06-07T13:06:04.851Z,3.43
2019-06-07T13:08:34.721Z,2.03
2019-06-07T13:11:14.873Z,2.17
2019-06-07T13:13:36.372Z,10.40
2019-06-07T13:16:06.676Z,2.23
2019-06-07T13:18:36.535Z,2.20
2019-06-07T13:21:06.438Z,2.43
2019-06-07T13:23:36.426Z,4.07
2019-06-07T13:26:06.450Z,2.90
2019-06-07T13:28:36.474Z,2.50
2019-06-07T13:31:06.465Z,2.63
2019-06-07T13:33:38.769Z,2.83
2019-06-07T13:36:08.027Z,4.07
2019-06-07T13:38:38.001Z,3.30
2019-06-07T13:41:07.900Z,2.47
2019-06-07T13:43:37.948Z,2.50
2019-06-07T13:46:07.859Z,2.57
2019-06-07T13:48:37.818Z,3.83
2019-06-07T13:51:07.725Z,2.43
2019-06-07T13:53:37.655Z,2.40
2019-06-07T13:56:07.582Z,3.50
2019-06-07T13:58:37.472Z,2.20
2019-06-07T14:01:07.519Z,2.40
2019-06-07T14:03:37.396Z,4.27
2019-06-07T14:06:07.375Z,2.93
2019-06-07T14:08:37.404Z,2.53
2019-06-07T14:11:07.286Z,3.33
2019-06-07T14:13:37.196Z,2.63
2019-06-07T14:16:07.111Z,2.40
2019-06-07T14:18:37.009Z,2.63
2019-06-07T14:21:06.986Z,2.57
2019-06-07T14:23:48.422Z,5.87
2019-06-07T14:26:08.644Z,4.27
2019-06-07T14:28:38.581Z,2.40
2019-06-07T14:31:11.297Z,3.10
2019-06-07T14:33:41.269Z,5.13
2019-06-07T14:36:11.259Z,2.77
2019-06-07T14:38:41.202Z,3.07
2019-06-07T14:41:11.101Z,2.23
2019-06-07T14:43:41.184Z,3.03
2019-06-07T14:46:11.523Z,2.53
2019-06-07T14:48:41.593Z,2.37
2019-06-07T14:51:11.616Z,5.27
2019-06-07T14:53:41.528Z,3.60
2019-06-07T14:56:11.595Z,2.80
2019-06-07T14:58:43.517Z,3.93
2019-06-07T15:01:13.176Z,3.57
2019-06-07T15:03:43.122Z,3.37
2019-06-07T15:06:13.056Z,2.70
2019-06-07T15:08:42.928Z,2.30
2019-06-07T15:11:12.813Z,2.53
2019-06-07T15:13:42.739Z,3.83
2019-06-07T15:16:12.670Z,2.20
2019-06-07T15:18:42.546Z,2.77
2019-06-07T15:21:12.437Z,3.90
2019-06-07T15:23:42.357Z,2.80
2019-06-07T15:26:12.273Z,3.10
2019-06-07T15:28:42.283Z,4.57
2019-06-07T15:31:12.184Z,3.10
2019-06-07T15:33:42.106Z,4.50
2019-06-07T15:36:12.232Z,2.40
2019-06-07T15:38:42.132Z,2.20
2019-06-07T15:41:12.046Z,3.13
2019-06-07T15:43:41.946Z,3.20
2019-06-07T15:46:11.846Z,2.90
2019-06-07T15:48:41.904Z,2.30
2019-06-07T15:51:11.822Z,2.80
2019-06-07T15:53:44.546Z,4.40
2019-06-07T15:56:13.430Z,3.60
2019-06-07T15:58:43.323Z,2.80
2019-06-07T16:01:13.386Z,3.67
2019-06-07T16:03:43.394Z,3.80
2019-06-07T16:06:14.841Z,2.52
2019-06-07T16:08:47.459Z,2.17
2019-06-07T16:11:19.216Z,3.70
2019-06-07T16:13:49.193Z,3.23
2019-06-07T16:16:19.103Z,2.60
2019-06-07T16:18:49.007Z,5.63
2019-06-07T16:21:18.907Z,3.07
2019-06-07T16:23:48.860Z,2.90
2019-06-07T16:26:18.955Z,2.90
2019-06-07T16:28:48.871Z,2.80
2019-06-07T16:31:18.833Z,3.50
2019-06-07T16:33:48.725Z,2.70
2019-06-07T16:36:18.983Z,2.70
2019-06-07T16:38:49.159Z,3.12
2019-06-07T16:41:19.701Z,2.97
2019-06-07T16:43:50.498Z,4.40
2019-06-07T16:46:20.420Z,2.90
2019-06-07T16:48:50.853Z,4.03
2019-06-07T16:51:21.491Z,3.90
2019-06-07T16:53:51.753Z,3.23
2019-06-07T16:56:22.001Z,4.13
2019-06-07T16:58:53.221Z,3.20
2019-06-07T17:01:23.909Z,3.57
2019-06-07T17:03:54.014Z,4.22
2019-06-07T17:06:25.145Z,3.67
2019-06-07T17:08:55.023Z,3.33
2019-06-07T17:11:26.279Z,15.87
2019-06-07T17:13:56.687Z,6.13
2019-06-07T17:16:27.323Z,3.50
2019-06-07T17:18:57.215Z,4.20
2019-06-07T17:21:27.555Z,2.92
2019-06-07T17:23:57.838Z,4.37
2019-06-07T17:26:27.722Z,3.40
2019-06-07T17:28:58.605Z,3.10
2019-06-07T17:31:28.538Z,3.07
2019-06-07T17:33:58.443Z,4.20
2019-06-07T17:36:28.642Z,3.67
2019-06-07T17:38:58.699Z,5.87
2019-06-07T17:41:28.838Z,4.40
2019-06-07T17:44:00.585Z,6.00
2019-06-07T17:46:30.588Z,5.87
2019-06-07T17:49:00.555Z,3.93
2019-06-07T17:51:30.695Z,3.97
2019-06-07T17:54:00.672Z,3.67
2019-06-07T17:56:30.552Z,4.10
2019-06-07T17:59:00.431Z,4.00
2019-06-07T18:01:40.964Z,4.70
2019-06-07T18:04:02.958Z,5.47
2019-06-07T18:06:34.694Z,4.28
2019-06-07T18:09:07.916Z,4.00
2019-06-07T18:11:37.806Z,4.33
2019-06-07T18:14:10.957Z,7.53
2019-06-07T18:16:39.473Z,4.07
2019-06-07T18:19:09.357Z,5.13
2019-06-07T18:21:39.257Z,4.70
2019-06-07T18:24:09.227Z,6.40
2019-06-07T18:26:39.187Z,5.17
2019-06-07T18:29:09.082Z,4.83
2019-06-07T18:31:39.013Z,5.23
2019-06-07T18:34:08.985Z,5.67
2019-06-07T18:36:38.929Z,6.03
2019-06-07T18:39:09.292Z,5.43
2019-06-07T18:41:39.163Z,5.80
2019-06-07T18:44:21.133Z,5.47
2019-06-07T18:46:40.756Z,5.77
2019-06-07T18:49:10.707Z,6.57
2019-06-07T18:51:40.614Z,5.77
2019-06-07T18:54:10.601Z,8.20
2019-06-07T18:56:40.534Z,6.23
2019-06-07T18:59:10.381Z,6.40
2019-06-07T19:01:40.335Z,7.07
2019-06-07T19:04:10.225Z,9.13
2019-06-07T19:06:40.124Z,6.97
2019-06-07T19:09:10.193Z,7.90
2019-06-07T19:11:40.149Z,7.50
2019-06-07T19:14:10.159Z,7.83
2019-06-07T19:16:40.106Z,8.30
2019-06-07T19:19:09.981Z,9.03
2019-06-07T19:21:39.945Z,9.00
2019-06-07T19:24:09.823Z,9.00
2019-06-07T19:26:39.871Z,9.53
2019-06-07T19:29:09.801Z,9.07
2019-06-07T19:31:39.730Z,10.43
2019-06-07T19:34:09.622Z,9.60
2019-06-07T19:36:48.349Z,10.03
2019-06-07T19:39:11.204Z,11.77
2019-06-07T19:41:41.115Z,10.83
2019-06-07T19:44:12.823Z,20.13
2019-06-07T19:46:42.893Z,14.97
2019-06-07T19:49:13.296Z,15.27
2019-06-07T19:51:46.001Z,12.03
2019-06-07T19:54:15.964Z,12.80
2019-06-07T19:56:45.933Z,13.33
2019-06-07T19:59:16.052Z,12.20
2019-06-07T20:01:46.053Z,12.43
2019-06-07T20:04:15.954Z,16.13
2019-06-07T20:06:45.967Z,12.43
2019-06-07T20:09:15.919Z,12.67
2019-06-07T20:11:45.860Z,11.90
2019-06-07T20:14:15.745Z,11.77
2019-06-07T20:16:45.759Z,11.83
2019-06-07T20:19:15.689Z,11.97
2019-06-07T20:21:45.723Z,13.10
2019-06-07T20:24:26.275Z,12.53
2019-06-07T20:26:47.712Z,12.63
2019-06-07T20:29:25.724Z,11.80
2019-06-07T20:31:49.257Z,12.90
2019-06-07T20:34:19.328Z,13.53
2019-06-07T20:36:49.381Z,13.20
2019-06-07T20:39:19.268Z,12.60
2019-06-07T20:41:49.742Z,12.53
2019-06-07T20:44:19.647Z,12.53
2019-06-07T20:46:49.626Z,13.03
2019-06-07T20:49:19.536Z,11.93
2019-06-07T20:51:49.429Z,11.43
2019-06-07T20:54:19.317Z,12.93
2019-06-07T20:56:49.287Z,11.83
2019-06-07T20:59:19.170Z,12.20
2019-06-07T21:01:49.163Z,11.57
2019-06-07T21:04:19.158Z,12.13
2019-06-07T21:06:49.182Z,11.83
2019-06-07T21:09:19.231Z,11.97
2019-06-07T21:11:49.190Z,12.80
2019-06-07T21:14:19.279Z,11.47
2019-06-07T21:16:49.180Z,11.37
2019-06-07T21:19:19.098Z,12.07
2019-06-07T21:21:49.121Z,11.37
2019-06-07T21:24:19.145Z,11.87
2019-06-07T21:26:49.126Z,12.00
2019-06-07T21:29:19.043Z,11.40
2019-06-07T21:31:49.545Z,11.87
2019-06-07T21:34:19.607Z,12.07
2019-06-07T21:36:50.147Z,11.60
2019-06-07T21:39:20.565Z,11.83
2019-06-07T21:41:50.424Z,11.20
2019-06-07T21:44:20.567Z,10.77
2019-06-07T21:46:51.237Z,10.73
2019-06-07T21:49:21.131Z,10.63
2019-06-07T21:51:52.377Z,11.13
2019-06-07T21:54:22.685Z,11.17
2019-06-07T21:56:52.636Z,11.27
2019-06-07T21:59:22.655Z,10.93
2019-06-07T22:01:52.739Z,11.60
2019-06-07T22:04:22.710Z,12.67
2019-06-07T22:06:52.888Z,11.70
2019-06-07T22:09:22.871Z,10.90
2019-06-07T22:11:52.871Z,11.13
2019-06-07T22:14:22.844Z,10.97
2019-06-07T22:16:52.762Z,18.73
2019-06-07T22:19:22.750Z,12.90
2019-06-07T22:22:02.253Z,11.20
2019-06-07T22:24:24.559Z,10.83
2019-06-07T22:26:54.562Z,11.20
2019-06-07T22:29:24.735Z,13.17
2019-06-07T22:31:54.738Z,11.60
2019-06-07T22:34:24.648Z,12.57
2019-06-07T22:36:54.578Z,11.40
2019-06-07T22:39:24.792Z,11.63
2019-06-07T22:42:15.232Z,10.17
2019-06-07T22:44:46.055Z,12.67
2019-06-07T22:47:16.263Z,11.50
2019-06-07T22:49:46.861Z,11.30
2019-06-07T22:52:18.889Z,20.80
2019-06-07T22:54:51.670Z,17.67
2019-06-07T22:57:30.574Z,12.80
2019-06-07T23:00:09.331Z,15.57
2019-06-07T23:02:40.256Z,19.40
2019-06-07T23:05:10.678Z,16.50
2019-06-07T23:07:40.602Z,25.30
2019-06-07T23:10:11.346Z,21.87
2019-06-07T23:12:41.299Z,12.13
2019-06-07T23:15:11.843Z,19.60
2019-06-07T23:17:41.839Z,20.60
2019-06-07T23:20:13.727Z,20.80
2019-06-07T23:22:43.683Z,22.43
2019-06-07T23:25:17.652Z,12.77
2019-06-07T23:27:45.414Z,12.50
2019-06-07T23:30:16.645Z,14.67
2019-06-07T23:32:46.722Z,13.80
2019-06-07T23:35:17.404Z,12.33
2019-06-07T23:37:47.471Z,12.23
2019-06-07T23:40:19.410Z,11.23
2019-06-07T23:42:49.445Z,14.83
2019-06-07T23:45:19.630Z,16.07
2019-06-07T23:47:49.511Z,12.37
2019-06-07T23:50:19.918Z,13.13
2019-06-07T23:52:49.941Z,15.03
2019-06-07T23:55:20.161Z,14.23
2019-06-07T23:57:50.294Z,15.37
